sensor_id;sensor_type;location;lat;lon;timestamp;P1;durP1;ratioP1;P2;durP2;ratioP2
69434;SDS011;56625;54.322;18.582;2022-12-07T00:01:45;17.90;;;7.20;;
69434;SDS011;56625;54.322;18.582;2022-12-07T00:04:15;18.50;;;6.00;;
69434;SDS011;56625;54.322;18.582;2022-12-07T00:06:50;13.50;;;4.80;;
69434;SDS011;56625;54.322;18.582;2022-12-07T00:09:20;14.80;;;5.50;;
69434;SDS011;56625;54.322;18.582;2022-12-07T00:11:51;14.90;;;4.60;;
69434;SDS011;56625;54.322;18.582;2022-12-07T00:14:20;12.80;;;4.30;;
69434;SDS011;56625;54.322;18.582;2022-12-07T00:16:50;15.20;;;5.30;;
69434;SDS011;56625;54.322;18.582;2022-12-07T00:19:19;14.70;;;4.90;;
69434;SDS011;56625;54.322;18.582;2022-12-07T00:21:47;16.60;;;6.90;;
69434;SDS011;56625;54.322;18.582;2022-12-07T00:24:16;15.90;;;6.20;;
69434;SDS011;56625;54.322;18.582;2022-12-07T00:26:44;14.00;;;3.90;;
69434;SDS011;56625;54.322;18.582;2022-12-07T00:29:18;11.50;;;3.50;;
69434;SDS011;56625;54.322;18.582;2022-12-07T00:31:47;13.50;;;4.30;;
69434;SDS011;56625;54.322;18.582;2022-12-07T00:34:18;15.90;;;5.10;;
69434;SDS011;56625;54.322;18.582;2022-12-07T00:36:48;13.60;;;4.90;;
69434;SDS011;56625;54.322;18.582;2022-12-07T00:39:17;15.40;;;5.10;;
69434;SDS011;56625;54.322;18.582;2022-12-07T00:41:45;15.40;;;4.80;;
69434;SDS011;56625;54.322;18.582;2022-12-07T00:44:13;15.50;;;6.00;;
69434;SDS011;56625;54.322;18.582;2022-12-07T00:46:41;15.50;;;5.30;;
69434;SDS011;56625;54.322;18.582;2022-12-07T00:49:09;10.80;;;3.80;;
69434;SDS011;56625;54.322;18.582;2022-12-07T00:51:37;18.10;;;6.00;;
69434;SDS011;56625;54.322;18.582;2022-12-07T00:54:05;17.80;;;6.00;;
69434;SDS011;56625;54.322;18.582;2022-12-07T00:56:33;11.70;;;3.60;;
69434;SDS011;56625;54.322;18.582;2022-12-07T00:59:03;16.30;;;5.60;;
69434;SDS011;56625;54.322;18.582;2022-12-07T01:01:34;11.00;;;3.50;;
69434;SDS011;56625;54.322;18.582;2022-12-07T01:04:04;10.40;;;3.50;;
69434;SDS011;56625;54.322;18.582;2022-12-07T01:06:33;15.70;;;4.40;;
69434;SDS011;56625;54.322;18.582;2022-12-07T01:09:01;15.80;;;5.60;;
69434;SDS011;56625;54.322;18.582;2022-12-07T01:11:31;10.10;;;3.50;;
69434;SDS011;56625;54.322;18.582;2022-12-07T01:14:00;16.40;;;5.50;;
69434;SDS011;56625;54.322;18.582;2022-12-07T01:16:30;17.70;;;5.80;;
69434;SDS011;56625;54.322;18.582;2022-12-07T01:19:00;15.20;;;4.40;;
69434;SDS011;56625;54.322;18.582;2022-12-07T01:21:31;12.50;;;3.60;;
69434;SDS011;56625;54.322;18.582;2022-12-07T01:24:07;15.60;;;4.00;;
69434;SDS011;56625;54.322;18.582;2022-12-07T01:26:37;10.10;;;3.00;;
69434;SDS011;56625;54.322;18.582;2022-12-07T01:29:05;14.90;;;4.80;;
69434;SDS011;56625;54.322;18.582;2022-12-07T01:31:33;15.80;;;5.20;;
69434;SDS011;56625;54.322;18.582;2022-12-07T01:34:01;13.10;;;3.00;;
69434;SDS011;56625;54.322;18.582;2022-12-07T01:36:32;14.40;;;4.50;;
69434;SDS011;56625;54.322;18.582;2022-12-07T01:39:05;14.10;;;4.20;;
69434;SDS011;56625;54.322;18.582;2022-12-07T01:41:38;15.60;;;4.70;;
69434;SDS011;56625;54.322;18.582;2022-12-07T01:44:21;15.60;;;5.00;;
69434;SDS011;56625;54.322;18.582;2022-12-07T01:46:57;19.90;;;5.80;;
69434;SDS011;56625;54.322;18.582;2022-12-07T01:49:37;15.30;;;4.40;;
69434;SDS011;56625;54.322;18.582;2022-12-07T01:52:28;14.10;;;4.50;;
69434;SDS011;56625;54.322;18.582;2022-12-07T01:55:03;12.70;;;3.40;;
69434;SDS011;56625;54.322;18.582;2022-12-07T01:57:35;9.50;;;3.30;;
69434;SDS011;56625;54.322;18.582;2022-12-07T02:00:07;14.50;;;4.90;;
69434;SDS011;56625;54.322;18.582;2022-12-07T02:02:41;14.00;;;4.30;;
69434;SDS011;56625;54.322;18.582;2022-12-07T02:05:15;18.20;;;5.40;;
69434;SDS011;56625;54.322;18.582;2022-12-07T02:07:47;17.60;;;5.20;;
69434;SDS011;56625;54.322;18.582;2022-12-07T02:10:25;16.30;;;4.80;;
69434;SDS011;56625;54.322;18.582;2022-12-07T02:13:03;16.30;;;5.10;;
69434;SDS011;56625;54.322;18.582;2022-12-07T02:18:48;17.70;;;5.50;;
69434;SDS011;56625;54.322;18.582;2022-12-07T02:21:29;14.00;;;4.90;;
69434;SDS011;56625;54.322;18.582;2022-12-07T02:30:00;15.20;;;4.40;;
69434;SDS011;56625;54.322;18.582;2022-12-07T02:33:04;13.90;;;4.10;;
69434;SDS011;56625;54.322;18.582;2022-12-07T02:35:52;15.50;;;5.00;;
69434;SDS011;56625;54.322;18.582;2022-12-07T02:38:38;12.70;;;4.20;;
69434;SDS011;56625;54.322;18.582;2022-12-07T02:41:17;15.90;;;5.40;;
69434;SDS011;56625;54.322;18.582;2022-12-07T02:43:55;13.40;;;3.90;;
69434;SDS011;56625;54.322;18.582;2022-12-07T02:46:38;15.00;;;4.00;;
69434;SDS011;56625;54.322;18.582;2022-12-07T02:49:10;16.80;;;5.60;;
69434;SDS011;56625;54.322;18.582;2022-12-07T02:51:40;15.90;;;4.90;;
69434;SDS011;56625;54.322;18.582;2022-12-07T02:54:16;13.40;;;4.40;;
69434;SDS011;56625;54.322;18.582;2022-12-07T02:56:50;15.00;;;4.40;;
69434;SDS011;56625;54.322;18.582;2022-12-07T03:05:31;13.50;;;4.10;;
69434;SDS011;56625;54.322;18.582;2022-12-07T03:11:08;7.90;;;2.10;;
69434;SDS011;56625;54.322;18.582;2022-12-07T03:16:47;5.20;;;1.60;;
69434;SDS011;56625;54.322;18.582;2022-12-07T03:19:20;10.30;;;3.40;;
69434;SDS011;56625;54.322;18.582;2022-12-07T03:22:00;10.80;;;3.10;;
69434;SDS011;56625;54.322;18.582;2022-12-07T03:24:38;9.50;;;2.80;;
69434;SDS011;56625;54.322;18.582;2022-12-07T03:27:24;8.20;;;2.00;;
69434;SDS011;56625;54.322;18.582;2022-12-07T03:30:00;7.90;;;2.20;;
69434;SDS011;56625;54.322;18.582;2022-12-07T03:32:49;4.80;;;1.40;;
69434;SDS011;56625;54.322;18.582;2022-12-07T03:35:40;6.30;;;1.50;;
69434;SDS011;56625;54.322;18.582;2022-12-07T03:38:54;6.90;;;1.70;;
69434;SDS011;56625;54.322;18.582;2022-12-07T03:41:28;9.30;;;1.60;;
69434;SDS011;56625;54.322;18.582;2022-12-07T03:43:59;7.60;;;1.90;;
69434;SDS011;56625;54.322;18.582;2022-12-07T03:49:25;8.20;;;2.30;;
69434;SDS011;56625;54.322;18.582;2022-12-07T03:57:49;8.20;;;1.90;;
69434;SDS011;56625;54.322;18.582;2022-12-07T04:00:21;9.70;;;2.60;;
69434;SDS011;56625;54.322;18.582;2022-12-07T04:02:52;8.10;;;2.30;;
69434;SDS011;56625;54.322;18.582;2022-12-07T04:05:20;10.10;;;2.00;;
69434;SDS011;56625;54.322;18.582;2022-12-07T04:07:48;7.00;;;1.70;;
69434;SDS011;56625;54.322;18.582;2022-12-07T04:10:17;7.60;;;2.30;;
69434;SDS011;56625;54.322;18.582;2022-12-07T04:12:45;8.00;;;1.90;;
69434;SDS011;56625;54.322;18.582;2022-12-07T04:15:13;7.70;;;1.90;;
69434;SDS011;56625;54.322;18.582;2022-12-07T04:17:41;8.10;;;1.20;;
69434;SDS011;56625;54.322;18.582;2022-12-07T04:20:09;9.10;;;2.70;;
69434;SDS011;56625;54.322;18.582;2022-12-07T04:22:39;8.40;;;2.60;;
69434;SDS011;56625;54.322;18.582;2022-12-07T04:25:07;8.20;;;1.80;;
69434;SDS011;56625;54.322;18.582;2022-12-07T04:27:35;8.30;;;2.20;;
69434;SDS011;56625;54.322;18.582;2022-12-07T04:30:04;7.00;;;1.90;;
69434;SDS011;56625;54.322;18.582;2022-12-07T04:32:33;7.00;;;2.10;;
69434;SDS011;56625;54.322;18.582;2022-12-07T04:35:01;6.20;;;1.80;;
69434;SDS011;56625;54.322;18.582;2022-12-07T04:37:30;7.50;;;2.10;;
69434;SDS011;56625;54.322;18.582;2022-12-07T04:39:58;6.70;;;1.70;;
69434;SDS011;56625;54.322;18.582;2022-12-07T04:42:27;6.60;;;1.80;;
69434;SDS011;56625;54.322;18.582;2022-12-07T04:44:55;5.60;;;1.30;;
69434;SDS011;56625;54.322;18.582;2022-12-07T04:47:23;5.90;;;1.80;;
69434;SDS011;56625;54.322;18.582;2022-12-07T04:49:50;6.80;;;2.00;;
69434;SDS011;56625;54.322;18.582;2022-12-07T04:52:18;6.60;;;1.70;;
69434;SDS011;56625;54.322;18.582;2022-12-07T04:54:46;5.50;;;1.70;;
69434;SDS011;56625;54.322;18.582;2022-12-07T04:57:15;6.20;;;2.10;;
69434;SDS011;56625;54.322;18.582;2022-12-07T04:59:43;6.50;;;1.90;;
69434;SDS011;56625;54.322;18.582;2022-12-07T05:02:12;7.20;;;2.00;;
69434;SDS011;56625;54.322;18.582;2022-12-07T05:04:41;6.40;;;1.70;;
69434;SDS011;56625;54.322;18.582;2022-12-07T05:07:08;5.70;;;1.60;;
69434;SDS011;56625;54.322;18.582;2022-12-07T05:09:36;6.40;;;1.70;;
69434;SDS011;56625;54.322;18.582;2022-12-07T05:12:04;6.30;;;2.00;;
69434;SDS011;56625;54.322;18.582;2022-12-07T05:14:32;5.40;;;1.60;;
69434;SDS011;56625;54.322;18.582;2022-12-07T05:17:00;6.00;;;1.80;;
69434;SDS011;56625;54.322;18.582;2022-12-07T05:19:28;6.50;;;1.80;;
69434;SDS011;56625;54.322;18.582;2022-12-07T05:21:56;6.90;;;1.80;;
69434;SDS011;56625;54.322;18.582;2022-12-07T05:24:24;6.00;;;1.50;;
69434;SDS011;56625;54.322;18.582;2022-12-07T05:26:52;7.20;;;1.90;;
69434;SDS011;56625;54.322;18.582;2022-12-07T05:29:20;6.60;;;2.10;;
69434;SDS011;56625;54.322;18.582;2022-12-07T05:31:48;6.80;;;1.90;;
69434;SDS011;56625;54.322;18.582;2022-12-07T05:34:16;5.20;;;1.20;;
69434;SDS011;56625;54.322;18.582;2022-12-07T05:36:44;6.00;;;1.70;;
69434;SDS011;56625;54.322;18.582;2022-12-07T05:39:12;5.70;;;1.70;;
69434;SDS011;56625;54.322;18.582;2022-12-07T05:41:40;6.30;;;2.10;;
69434;SDS011;56625;54.322;18.582;2022-12-07T05:44:27;7.10;;;2.30;;
69434;SDS011;56625;54.322;18.582;2022-12-07T05:46:55;8.60;;;2.30;;
69434;SDS011;56625;54.322;18.582;2022-12-07T05:49:23;8.00;;;2.60;;
69434;SDS011;56625;54.322;18.582;2022-12-07T05:51:51;6.00;;;1.70;;
69434;SDS011;56625;54.322;18.582;2022-12-07T05:54:19;8.50;;;2.40;;
69434;SDS011;56625;54.322;18.582;2022-12-07T05:56:47;5.80;;;1.50;;
69434;SDS011;56625;54.322;18.582;2022-12-07T05:59:15;7.30;;;2.00;;
69434;SDS011;56625;54.322;18.582;2022-12-07T06:02:05;7.30;;;2.30;;
69434;SDS011;56625;54.322;18.582;2022-12-07T06:04:37;7.30;;;2.60;;
69434;SDS011;56625;54.322;18.582;2022-12-07T06:07:12;5.30;;;1.70;;
69434;SDS011;56625;54.322;18.582;2022-12-07T06:09:41;7.60;;;1.90;;
69434;SDS011;56625;54.322;18.582;2022-12-07T06:12:11;5.30;;;1.30;;
69434;SDS011;56625;54.322;18.582;2022-12-07T06:14:59;6.50;;;1.50;;
69434;SDS011;56625;54.322;18.582;2022-12-07T06:17:27;4.90;;;1.10;;
69434;SDS011;56625;54.322;18.582;2022-12-07T06:19:55;2.40;;;0.40;;
69434;SDS011;56625;54.322;18.582;2022-12-07T06:22:23;3.40;;;0.60;;
69434;SDS011;56625;54.322;18.582;2022-12-07T06:24:51;3.40;;;0.90;;
69434;SDS011;56625;54.322;18.582;2022-12-07T06:27:19;2.20;;;0.40;;
69434;SDS011;56625;54.322;18.582;2022-12-07T06:29:47;1.50;;;0.30;;
69434;SDS011;56625;54.322;18.582;2022-12-07T06:32:15;2.50;;;0.40;;
69434;SDS011;56625;54.322;18.582;2022-12-07T06:34:47;1.60;;;0.30;;
69434;SDS011;56625;54.322;18.582;2022-12-07T06:37:15;2.50;;;0.40;;
69434;SDS011;56625;54.322;18.582;2022-12-07T06:39:43;1.80;;;0.20;;
69434;SDS011;56625;54.322;18.582;2022-12-07T06:42:11;2.10;;;0.30;;
69434;SDS011;56625;54.322;18.582;2022-12-07T06:44:39;4.30;;;0.60;;
69434;SDS011;56625;54.322;18.582;2022-12-07T06:47:07;3.00;;;0.50;;
69434;SDS011;56625;54.322;18.582;2022-12-07T06:49:55;2.30;;;0.50;;
69434;SDS011;56625;54.322;18.582;2022-12-07T06:52:23;2.40;;;0.40;;
69434;SDS011;56625;54.322;18.582;2022-12-07T06:54:51;2.50;;;0.40;;
69434;SDS011;56625;54.322;18.582;2022-12-07T06:57:19;2.80;;;0.40;;
69434;SDS011;56625;54.322;18.582;2022-12-07T06:59:47;2.30;;;0.40;;
69434;SDS011;56625;54.322;18.582;2022-12-07T07:02:15;1.70;;;0.40;;
69434;SDS011;56625;54.322;18.582;2022-12-07T07:04:44;3.60;;;0.90;;
69434;SDS011;56625;54.322;18.582;2022-12-07T07:07:12;4.00;;;0.90;;
69434;SDS011;56625;54.322;18.582;2022-12-07T07:09:40;2.30;;;0.30;;
69434;SDS011;56625;54.322;18.582;2022-12-07T07:12:09;4.20;;;0.80;;
69434;SDS011;56625;54.322;18.582;2022-12-07T07:14:37;4.00;;;0.90;;
69434;SDS011;56625;54.322;18.582;2022-12-07T07:17:05;3.30;;;0.80;;
69434;SDS011;56625;54.322;18.582;2022-12-07T07:19:33;4.40;;;0.90;;
69434;SDS011;56625;54.322;18.582;2022-12-07T07:22:01;4.50;;;1.10;;
69434;SDS011;56625;54.322;18.582;2022-12-07T07:24:29;5.90;;;1.10;;
69434;SDS011;56625;54.322;18.582;2022-12-07T07:26:57;7.70;;;1.30;;
69434;SDS011;56625;54.322;18.582;2022-12-07T07:29:25;6.70;;;1.20;;
69434;SDS011;56625;54.322;18.582;2022-12-07T07:31:53;5.30;;;1.40;;
69434;SDS011;56625;54.322;18.582;2022-12-07T07:34:21;8.00;;;1.50;;
69434;SDS011;56625;54.322;18.582;2022-12-07T07:36:50;6.20;;;1.70;;
69434;SDS011;56625;54.322;18.582;2022-12-07T07:39:18;5.20;;;1.40;;
69434;SDS011;56625;54.322;18.582;2022-12-07T07:41:46;4.40;;;1.10;;
69434;SDS011;56625;54.322;18.582;2022-12-07T07:44:14;6.70;;;2.10;;
69434;SDS011;56625;54.322;18.582;2022-12-07T07:46:42;5.10;;;1.40;;
69434;SDS011;56625;54.322;18.582;2022-12-07T07:49:10;6.40;;;1.80;;
69434;SDS011;56625;54.322;18.582;2022-12-07T07:51:39;6.30;;;2.10;;
69434;SDS011;56625;54.322;18.582;2022-12-07T07:54:07;7.50;;;2.50;;
69434;SDS011;56625;54.322;18.582;2022-12-07T07:56:34;9.00;;;3.60;;
69434;SDS011;56625;54.322;18.582;2022-12-07T07:59:02;19.20;;;5.90;;
69434;SDS011;56625;54.322;18.582;2022-12-07T08:01:30;8.30;;;2.40;;
69434;SDS011;56625;54.322;18.582;2022-12-07T08:03:58;5.10;;;1.70;;
69434;SDS011;56625;54.322;18.582;2022-12-07T08:06:26;7.80;;;2.20;;
69434;SDS011;56625;54.322;18.582;2022-12-07T08:08:59;9.10;;;2.70;;
69434;SDS011;56625;54.322;18.582;2022-12-07T08:11:27;8.30;;;2.60;;
69434;SDS011;56625;54.322;18.582;2022-12-07T08:13:55;7.70;;;2.20;;
69434;SDS011;56625;54.322;18.582;2022-12-07T08:16:23;7.50;;;2.30;;
69434;SDS011;56625;54.322;18.582;2022-12-07T08:18:51;6.20;;;1.80;;
69434;SDS011;56625;54.322;18.582;2022-12-07T08:21:19;4.90;;;1.40;;
69434;SDS011;56625;54.322;18.582;2022-12-07T08:23:48;8.10;;;2.10;;
69434;SDS011;56625;54.322;18.582;2022-12-07T08:26:16;6.60;;;2.50;;
69434;SDS011;56625;54.322;18.582;2022-12-07T08:28:44;6.70;;;2.10;;
69434;SDS011;56625;54.322;18.582;2022-12-07T08:31:16;8.10;;;2.80;;
69434;SDS011;56625;54.322;18.582;2022-12-07T08:33:49;7.80;;;2.10;;
69434;SDS011;56625;54.322;18.582;2022-12-07T08:36:18;9.30;;;2.10;;
69434;SDS011;56625;54.322;18.582;2022-12-07T08:38:46;4.60;;;1.60;;
69434;SDS011;56625;54.322;18.582;2022-12-07T08:41:34;8.80;;;2.60;;
69434;SDS011;56625;54.322;18.582;2022-12-07T08:44:03;8.40;;;2.90;;
69434;SDS011;56625;54.322;18.582;2022-12-07T08:46:36;7.20;;;2.60;;
69434;SDS011;56625;54.322;18.582;2022-12-07T08:49:18;5.90;;;1.60;;
69434;SDS011;56625;54.322;18.582;2022-12-07T08:51:50;5.50;;;1.80;;
69434;SDS011;56625;54.322;18.582;2022-12-07T08:54:19;6.30;;;2.40;;
69434;SDS011;56625;54.322;18.582;2022-12-07T08:56:47;8.20;;;2.00;;
69434;SDS011;56625;54.322;18.582;2022-12-07T08:59:25;16.90;;;7.40;;
69434;SDS011;56625;54.322;18.582;2022-12-07T09:01:54;9.20;;;3.60;;
69434;SDS011;56625;54.322;18.582;2022-12-07T09:04:22;8.60;;;2.70;;
69434;SDS011;56625;54.322;18.582;2022-12-07T09:06:50;6.00;;;2.20;;
69434;SDS011;56625;54.322;18.582;2022-12-07T09:09:19;6.10;;;1.50;;
69434;SDS011;56625;54.322;18.582;2022-12-07T09:11:47;6.40;;;1.70;;
69434;SDS011;56625;54.322;18.582;2022-12-07T09:14:14;7.50;;;3.10;;
69434;SDS011;56625;54.322;18.582;2022-12-07T09:16:43;5.20;;;2.20;;
69434;SDS011;56625;54.322;18.582;2022-12-07T09:19:11;5.30;;;1.80;;
69434;SDS011;56625;54.322;18.582;2022-12-07T09:21:39;8.60;;;3.20;;
69434;SDS011;56625;54.322;18.582;2022-12-07T09:24:07;11.00;;;5.30;;
69434;SDS011;56625;54.322;18.582;2022-12-07T09:26:36;8.20;;;4.00;;
69434;SDS011;56625;54.322;18.582;2022-12-07T09:29:06;11.20;;;4.70;;
69434;SDS011;56625;54.322;18.582;2022-12-07T09:31:36;16.60;;;7.90;;
69434;SDS011;56625;54.322;18.582;2022-12-07T09:34:05;9.90;;;4.70;;
69434;SDS011;56625;54.322;18.582;2022-12-07T09:36:33;4.90;;;1.60;;
69434;SDS011;56625;54.322;18.582;2022-12-07T09:39:03;14.20;;;4.80;;
69434;SDS011;56625;54.322;18.582;2022-12-07T09:41:32;8.60;;;3.70;;
69434;SDS011;56625;54.322;18.582;2022-12-07T09:44:12;9.00;;;3.20;;
69434;SDS011;56625;54.322;18.582;2022-12-07T09:46:46;8.50;;;3.20;;
69434;SDS011;56625;54.322;18.582;2022-12-07T09:49:17;7.50;;;2.30;;
69434;SDS011;56625;54.322;18.582;2022-12-07T09:52:00;7.70;;;3.50;;
69434;SDS011;56625;54.322;18.582;2022-12-07T09:54:35;7.70;;;3.10;;
69434;SDS011;56625;54.322;18.582;2022-12-07T09:57:08;5.30;;;1.70;;
69434;SDS011;56625;54.322;18.582;2022-12-07T09:59:40;7.40;;;2.40;;
69434;SDS011;56625;54.322;18.582;2022-12-07T10:04:52;7.80;;;2.80;;
69434;SDS011;56625;54.322;18.582;2022-12-07T10:07:21;6.40;;;1.90;;
69434;SDS011;56625;54.322;18.582;2022-12-07T10:09:49;8.30;;;3.00;;
69434;SDS011;56625;54.322;18.582;2022-12-07T10:12:17;6.80;;;2.10;;
69434;SDS011;56625;54.322;18.582;2022-12-07T10:15:04;5.50;;;1.40;;
69434;SDS011;56625;54.322;18.582;2022-12-07T10:17:40;6.90;;;2.20;;
69434;SDS011;56625;54.322;18.582;2022-12-07T10:20:19;4.10;;;1.20;;
69434;SDS011;56625;54.322;18.582;2022-12-07T10:23:04;5.70;;;1.90;;
69434;SDS011;56625;54.322;18.582;2022-12-07T10:25:41;7.60;;;2.50;;
69434;SDS011;56625;54.322;18.582;2022-12-07T10:28:18;7.20;;;2.60;;
69434;SDS011;56625;54.322;18.582;2022-12-07T10:31:01;8.60;;;4.10;;
69434;SDS011;56625;54.322;18.582;2022-12-07T10:39:01;12.30;;;4.00;;
69434;SDS011;56625;54.322;18.582;2022-12-07T10:44:30;15.90;;;6.10;;
69434;SDS011;56625;54.322;18.582;2022-12-07T10:47:27;9.90;;;3.60;;
69434;SDS011;56625;54.322;18.582;2022-12-07T10:53:44;6.20;;;2.30;;
69434;SDS011;56625;54.322;18.582;2022-12-07T10:56:46;8.50;;;3.30;;
69434;SDS011;56625;54.322;18.582;2022-12-07T10:59:53;5.50;;;1.30;;
69434;SDS011;56625;54.322;18.582;2022-12-07T11:02:45;7.60;;;2.20;;
69434;SDS011;56625;54.322;18.582;2022-12-07T11:09:25;6.50;;;2.00;;
69434;SDS011;56625;54.322;18.582;2022-12-07T11:15:48;6.50;;;2.00;;
69434;SDS011;56625;54.322;18.582;2022-12-07T11:21:58;4.40;;;1.30;;
69434;SDS011;56625;54.322;18.582;2022-12-07T11:28:19;6.70;;;1.80;;
69434;SDS011;56625;54.322;18.582;2022-12-07T11:31:18;8.20;;;1.30;;
69434;SDS011;56625;54.322;18.582;2022-12-07T11:34:44;10.00;;;3.40;;
69434;SDS011;56625;54.322;18.582;2022-12-07T11:37:25;5.40;;;1.60;;
69434;SDS011;56625;54.322;18.582;2022-12-07T11:40:20;6.50;;;2.30;;
69434;SDS011;56625;54.322;18.582;2022-12-07T11:45:45;6.00;;;2.00;;
69434;SDS011;56625;54.322;18.582;2022-12-07T11:51:00;7.30;;;2.80;;
69434;SDS011;56625;54.322;18.582;2022-12-07T11:53:55;5.90;;;1.90;;
69434;SDS011;56625;54.322;18.582;2022-12-07T11:56:30;6.00;;;1.80;;
69434;SDS011;56625;54.322;18.582;2022-12-07T11:59:12;4.70;;;1.40;;
69434;SDS011;56625;54.322;18.582;2022-12-07T12:02:18;6.40;;;1.90;;
69434;SDS011;56625;54.322;18.582;2022-12-07T12:05:24;6.50;;;2.50;;
69434;SDS011;56625;54.322;18.582;2022-12-07T12:21:02;6.10;;;2.10;;
69434;SDS011;56625;54.322;18.582;2022-12-07T12:24:15;6.90;;;2.30;;
69434;SDS011;56625;54.322;18.582;2022-12-07T12:26:51;7.20;;;2.20;;
69434;SDS011;56625;54.322;18.582;2022-12-07T12:29:28;6.30;;;2.20;;
69434;SDS011;56625;54.322;18.582;2022-12-07T12:32:14;5.50;;;1.70;;
69434;SDS011;56625;54.322;18.582;2022-12-07T12:38:47;7.10;;;2.30;;
69434;SDS011;56625;54.322;18.582;2022-12-07T12:41:51;11.90;;;5.00;;
69434;SDS011;56625;54.322;18.582;2022-12-07T12:50:22;9.00;;;2.50;;
69434;SDS011;56625;54.322;18.582;2022-12-07T12:53:02;6.90;;;2.30;;
69434;SDS011;56625;54.322;18.582;2022-12-07T13:01:30;8.30;;;2.90;;
69434;SDS011;56625;54.322;18.582;2022-12-07T13:03:56;9.20;;;2.80;;
69434;SDS011;56625;54.322;18.582;2022-12-07T13:08:56;10.30;;;3.30;;
69434;SDS011;56625;54.322;18.582;2022-12-07T13:11:34;8.20;;;2.80;;
69434;SDS011;56625;54.322;18.582;2022-12-07T13:17:04;7.90;;;3.20;;
69434;SDS011;56625;54.322;18.582;2022-12-07T13:22:48;9.80;;;2.40;;
69434;SDS011;56625;54.322;18.582;2022-12-07T13:27:57;9.00;;;3.10;;
69434;SDS011;56625;54.322;18.582;2022-12-07T13:30:29;9.50;;;3.30;;
69434;SDS011;56625;54.322;18.582;2022-12-07T13:32:59;11.30;;;3.70;;
69434;SDS011;56625;54.322;18.582;2022-12-07T13:35:34;15.40;;;3.80;;
69434;SDS011;56625;54.322;18.582;2022-12-07T13:38:17;17.00;;;6.70;;
69434;SDS011;56625;54.322;18.582;2022-12-07T13:43:47;12.80;;;3.80;;
69434;SDS011;56625;54.322;18.582;2022-12-07T13:46:23;11.20;;;4.10;;
69434;SDS011;56625;54.322;18.582;2022-12-07T13:48:57;13.40;;;3.90;;
69434;SDS011;56625;54.322;18.582;2022-12-07T13:51:27;6.30;;;2.10;;
69434;SDS011;56625;54.322;18.582;2022-12-07T13:54:00;10.40;;;3.30;;
69434;SDS011;56625;54.322;18.582;2022-12-07T13:56:35;16.30;;;6.10;;
69434;SDS011;56625;54.322;18.582;2022-12-07T13:59:05;8.40;;;3.00;;
69434;SDS011;56625;54.322;18.582;2022-12-07T14:01:41;10.50;;;3.90;;
69434;SDS011;56625;54.322;18.582;2022-12-07T14:04:29;8.30;;;2.70;;
69434;SDS011;56625;54.322;18.582;2022-12-07T14:07:01;7.80;;;2.20;;
69434;SDS011;56625;54.322;18.582;2022-12-07T14:10:02;11.70;;;4.40;;
69434;SDS011;56625;54.322;18.582;2022-12-07T14:12:36;8.90;;;2.50;;
69434;SDS011;56625;54.322;18.582;2022-12-07T14:15:05;7.10;;;2.70;;
69434;SDS011;56625;54.322;18.582;2022-12-07T14:17:33;7.80;;;2.40;;
69434;SDS011;56625;54.322;18.582;2022-12-07T14:20:02;8.40;;;2.90;;
69434;SDS011;56625;54.322;18.582;2022-12-07T14:22:37;9.60;;;2.60;;
69434;SDS011;56625;54.322;18.582;2022-12-07T14:25:26;6.40;;;2.20;;
69434;SDS011;56625;54.322;18.582;2022-12-07T14:27:59;7.50;;;2.40;;
69434;SDS011;56625;54.322;18.582;2022-12-07T14:30:31;6.70;;;1.80;;
69434;SDS011;56625;54.322;18.582;2022-12-07T14:33:03;6.60;;;2.10;;
69434;SDS011;56625;54.322;18.582;2022-12-07T14:35:32;9.20;;;2.40;;
69434;SDS011;56625;54.322;18.582;2022-12-07T14:38:00;8.90;;;2.50;;
69434;SDS011;56625;54.322;18.582;2022-12-07T14:40:29;8.40;;;2.70;;
69434;SDS011;56625;54.322;18.582;2022-12-07T14:43:03;7.40;;;1.70;;
69434;SDS011;56625;54.322;18.582;2022-12-07T14:45:43;4.10;;;0.80;;
69434;SDS011;56625;54.322;18.582;2022-12-07T14:48:12;13.80;;;1.80;;
69434;SDS011;56625;54.322;18.582;2022-12-07T14:51:02;8.40;;;2.40;;
69434;SDS011;56625;54.322;18.582;2022-12-07T14:53:51;5.80;;;2.00;;
69434;SDS011;56625;54.322;18.582;2022-12-07T14:56:25;5.40;;;1.60;;
69434;SDS011;56625;54.322;18.582;2022-12-07T14:58:53;5.60;;;1.60;;
69434;SDS011;56625;54.322;18.582;2022-12-07T15:01:21;5.50;;;1.20;;
69434;SDS011;56625;54.322;18.582;2022-12-07T15:03:49;7.00;;;1.60;;
69434;SDS011;56625;54.322;18.582;2022-12-07T15:06:17;5.70;;;1.90;;
69434;SDS011;56625;54.322;18.582;2022-12-07T15:08:46;6.20;;;1.60;;
69434;SDS011;56625;54.322;18.582;2022-12-07T15:11:16;6.70;;;1.40;;
69434;SDS011;56625;54.322;18.582;2022-12-07T15:13:45;5.50;;;1.60;;
69434;SDS011;56625;54.322;18.582;2022-12-07T15:16:32;6.00;;;1.40;;
69434;SDS011;56625;54.322;18.582;2022-12-07T15:19:22;5.20;;;1.60;;
69434;SDS011;56625;54.322;18.582;2022-12-07T15:21:57;6.20;;;1.10;;
69434;SDS011;56625;54.322;18.582;2022-12-07T15:24:27;6.20;;;1.60;;
69434;SDS011;56625;54.322;18.582;2022-12-07T15:26:55;4.50;;;1.20;;
69434;SDS011;56625;54.322;18.582;2022-12-07T15:29:23;8.10;;;1.60;;
69434;SDS011;56625;54.322;18.582;2022-12-07T15:31:51;6.50;;;1.90;;
69434;SDS011;56625;54.322;18.582;2022-12-07T15:34:25;6.40;;;1.50;;
69434;SDS011;56625;54.322;18.582;2022-12-07T15:37:04;4.60;;;1.00;;
69434;SDS011;56625;54.322;18.582;2022-12-07T15:39:33;4.90;;;1.20;;
69434;SDS011;56625;54.322;18.582;2022-12-07T15:42:02;5.90;;;1.60;;
69434;SDS011;56625;54.322;18.582;2022-12-07T15:44:30;5.70;;;1.20;;
69434;SDS011;56625;54.322;18.582;2022-12-07T15:47:17;7.30;;;1.20;;
69434;SDS011;56625;54.322;18.582;2022-12-07T15:49:45;5.10;;;1.50;;
69434;SDS011;56625;54.322;18.582;2022-12-07T15:52:13;6.10;;;1.60;;
69434;SDS011;56625;54.322;18.582;2022-12-07T15:54:41;6.20;;;1.50;;
69434;SDS011;56625;54.322;18.582;2022-12-07T15:57:09;6.40;;;1.90;;
69434;SDS011;56625;54.322;18.582;2022-12-07T15:59:37;8.10;;;1.50;;
69434;SDS011;56625;54.322;18.582;2022-12-07T16:02:05;5.80;;;1.70;;
69434;SDS011;56625;54.322;18.582;2022-12-07T16:04:33;6.50;;;1.80;;
69434;SDS011;56625;54.322;18.582;2022-12-07T16:07:01;6.90;;;1.90;;
69434;SDS011;56625;54.322;18.582;2022-12-07T16:09:30;5.80;;;1.50;;
69434;SDS011;56625;54.322;18.582;2022-12-07T16:11:58;5.40;;;1.30;;
69434;SDS011;56625;54.322;18.582;2022-12-07T16:14:26;7.20;;;1.70;;
69434;SDS011;56625;54.322;18.582;2022-12-07T16:16:54;9.50;;;1.80;;
69434;SDS011;56625;54.322;18.582;2022-12-07T16:19:22;6.50;;;1.60;;
69434;SDS011;56625;54.322;18.582;2022-12-07T16:21:50;6.70;;;1.60;;
69434;SDS011;56625;54.322;18.582;2022-12-07T16:24:18;5.40;;;1.20;;
69434;SDS011;56625;54.322;18.582;2022-12-07T16:26:46;4.50;;;1.30;;
69434;SDS011;56625;54.322;18.582;2022-12-07T16:29:18;4.70;;;1.00;;
69434;SDS011;56625;54.322;18.582;2022-12-07T16:31:49;5.40;;;1.30;;
69434;SDS011;56625;54.322;18.582;2022-12-07T16:34:18;7.00;;;1.40;;
69434;SDS011;56625;54.322;18.582;2022-12-07T16:36:46;5.20;;;1.50;;
69434;SDS011;56625;54.322;18.582;2022-12-07T16:39:34;3.10;;;0.70;;
69434;SDS011;56625;54.322;18.582;2022-12-07T16:42:03;4.00;;;0.90;;
69434;SDS011;56625;54.322;18.582;2022-12-07T16:44:32;2.90;;;0.60;;
69434;SDS011;56625;54.322;18.582;2022-12-07T16:46:59;5.20;;;1.30;;
69434;SDS011;56625;54.322;18.582;2022-12-07T16:49:29;4.30;;;1.20;;
69434;SDS011;56625;54.322;18.582;2022-12-07T16:51:57;2.30;;;0.50;;
69434;SDS011;56625;54.322;18.582;2022-12-07T16:54:45;3.30;;;0.60;;